Time;durP1;ratioP1;P1;durP2;ratioP2;P2;SDS_P1;SDS_P2;PMS_P1;PMS_P2;Temp;Humidity;BMP_temperature;BMP_pressure;BME280_temperature;BME280_humidity;BME280_pressure;Samples;Min_cycle;Max_cycle;Signal;HPM_P1;HPM_P2
2021/12/27 00:00:47;;;;;;;31.23;15.63;;;-6.20;99.90;;;;;;5074023;28;20607;-76
2021/12/27 00:03:13;;;;;;;31.70;16.53;;;-6.20;99.90;;;;;;5076410;28;20263;-75
2021/12/27 00:05:39;;;;;;;32.60;15.97;;;-6.20;99.90;;;;;;5073343;28;20598;-76
2021/12/27 00:08:04;;;;;;;33.53;16.97;;;-6.20;99.90;;;;;;5076668;28;20280;-75
2021/12/27 00:10:30;;;;;;;30.67;16.73;;;-6.20;99.90;;;;;;5074277;28;20193;-75
2021/12/27 00:12:57;;;;;;;34.17;17.83;;;-6.20;99.90;;;;;;5075150;28;20207;-75
2021/12/27 00:15:23;;;;;;;36.57;18.40;;;-6.20;99.90;;;;;;5075001;28;20412;-75
2021/12/27 00:17:49;;;;;;;33.27;16.67;;;-6.20;99.90;;;;;;5076492;28;20607;-75
2021/12/27 00:20:17;;;;;;;30.27;18.23;;;-6.20;99.90;;;;;;5072670;28;20338;-76
2021/12/27 00:22:45;;;;;;;35.17;17.97;;;-6.20;99.90;;;;;;5066639;28;20269;-78
2021/12/27 00:25:12;;;;;;;38.30;17.87;;;-6.20;99.90;;;;;;5071014;28;20198;-72
2021/12/27 00:27:37;;;;;;;32.33;18.00;;;-6.10;99.90;;;;;;5077281;28;20186;-71
2021/12/27 00:30:05;;;;;;;35.80;17.33;;;-6.10;99.90;;;;;;5068363;28;20707;-73
2021/12/27 00:32:33;;;;;;;37.00;18.53;;;-6.10;99.90;;;;;;5066632;28;20280;-66
2021/12/27 00:34:58;;;;;;;32.30;18.50;;;-6.10;99.90;;;;;;5071878;28;20217;-62
2021/12/27 00:37:24;;;;;;;38.13;18.93;;;-6.20;99.90;;;;;;5074502;28;20723;-64
2021/12/27 00:39:49;;;;;;;35.43;19.13;;;-6.20;99.90;;;;;;5074729;28;20622;-62
2021/12/27 00:42:15;;;;;;;33.60;19.17;;;-6.20;99.90;;;;;;5074435;28;20243;-65
2021/12/27 00:44:40;;;;;;;38.93;19.83;;;-6.20;99.90;;;;;;5072199;28;20199;-64
2021/12/27 00:47:06;;;;;;;31.27;18.43;;;-6.20;99.90;;;;;;5075253;28;20251;-65
2021/12/27 00:49:32;;;;;;;29.80;16.23;;;-6.30;99.90;;;;;;5074384;28;20213;-64
2021/12/27 00:51:57;;;;;;;39.57;20.57;;;-6.20;99.90;;;;;;5078265;28;20201;-65
2021/12/27 00:54:23;;;;;;;36.90;19.73;;;-6.20;99.90;;;;;;5069706;28;20210;-65
2021/12/27 00:56:48;;;;;;;37.33;18.67;;;-6.30;99.90;;;;;;5075828;28;20247;-64
2021/12/27 00:59:14;;;;;;;34.53;18.07;;;-6.30;99.90;;;;;;5076176;28;20292;-63
2021/12/27 01:01:40;;;;;;;31.20;18.40;;;-6.30;99.90;;;;;;5077086;28;20212;-63
2021/12/27 01:04:06;;;;;;;35.43;19.37;;;-6.20;99.90;;;;;;5052797;28;20204;-65
2021/12/27 01:06:32;;;;;;;36.90;20.07;;;-6.20;99.90;;;;;;5066123;28;20922;-65
2021/12/27 01:08:58;;;;;;;38.73;18.90;;;-6.20;99.90;;;;;;5049982;28;20567;-64
2021/12/27 01:11:26;;;;;;;36.23;19.60;;;-6.20;99.90;;;;;;5060098;28;20241;-63
2021/12/27 01:14:10;;;;;;;37.33;21.13;;;-6.30;99.90;;;;;;5055933;28;20700;-64
2021/12/27 01:16:36;;;;;;;33.03;18.63;;;-6.30;99.90;;;;;;5062366;28;20299;-64
2021/12/27 01:19:02;;;;;;;43.63;20.57;;;-6.30;99.90;;;;;;5069625;28;20186;-64
2021/12/27 01:21:28;;;;;;;37.30;19.90;;;-6.30;99.90;;;;;;5074215;28;20161;-64
2021/12/27 01:23:55;;;;;;;27.97;17.70;;;-6.30;99.90;;;;;;5073887;28;20194;-64
2021/12/27 01:26:22;;;;;;;35.07;20.60;;;-6.30;99.90;;;;;;5074439;28;20281;-64
2021/12/27 01:28:48;;;;;;;47.13;20.17;;;-6.30;99.90;;;;;;5070798;28;20202;-64
2021/12/27 01:31:13;;;;;;;42.80;19.27;;;-6.30;99.90;;;;;;5076312;28;20201;-65
2021/12/27 01:33:40;;;;;;;40.80;22.00;;;-6.30;99.90;;;;;;5069478;28;20228;-63
2021/12/27 01:36:07;;;;;;;41.17;20.83;;;-6.30;99.90;;;;;;5074915;28;20213;-64
2021/12/27 01:38:37;;;;;;;38.03;20.97;;;-6.30;99.90;;;;;;5072848;28;20205;-64
2021/12/27 01:41:04;;;;;;;37.63;19.27;;;-6.30;99.90;;;;;;5073809;28;20221;-65
2021/12/27 01:43:32;;;;;;;41.77;20.43;;;-6.30;99.90;;;;;;5072557;28;20634;-65
2021/12/27 01:46:09;;;;;;;39.00;23.63;;;-6.30;99.90;;;;;;5073490;28;20186;-65
2021/12/27 01:48:38;;;;;;;47.57;22.90;;;-6.20;99.90;;;;;;5071445;28;20201;-64
2021/12/27 01:51:07;;;;;;;38.03;20.53;;;-6.20;99.90;;;;;;5075234;28;20660;-65
2021/12/27 01:53:34;;;;;;;40.93;21.73;;;-6.20;99.90;;;;;;5073416;28;20528;-65
2021/12/27 01:56:01;;;;;;;38.70;21.47;;;-6.20;99.90;;;;;;5074231;28;20297;-66
2021/12/27 01:58:27;;;;;;;39.20;21.03;;;-6.10;99.90;;;;;;5073062;28;20197;-65
2021/12/27 02:00:55;;;;;;;55.43;24.77;;;-6.10;99.90;;;;;;5075946;28;20228;-65
2021/12/27 02:03:23;;;;;;;36.30;20.83;;;-6.00;99.90;;;;;;5072087;28;20202;-64
2021/12/27 02:05:49;;;;;;;44.97;21.90;;;-6.00;99.90;;;;;;5074885;28;20190;-63
2021/12/27 02:08:15;;;;;;;46.57;24.43;;;-6.00;99.90;;;;;;5071938;28;20209;-63
2021/12/27 02:10:41;;;;;;;41.30;24.00;;;-6.00;99.90;;;;;;5073483;28;20197;-63
2021/12/27 02:13:09;;;;;;;44.03;21.23;;;-6.00;99.90;;;;;;5074488;28;20682;-64
2021/12/27 02:15:35;;;;;;;44.63;22.90;;;-6.00;99.90;;;;;;5070845;28;20236;-63
2021/12/27 02:18:00;;;;;;;50.67;23.07;;;-6.00;99.90;;;;;;5054507;28;20195;-64
2021/12/27 02:20:33;;;;;;;38.97;21.13;;;-6.00;99.90;;;;;;5059761;28;20199;-65
2021/12/27 02:23:02;;;;;;;48.53;25.13;;;-6.00;99.90;;;;;;5043488;28;20324;-65
2021/12/27 02:25:30;;;;;;;38.93;21.40;;;-6.10;99.90;;;;;;5062513;28;20201;-64
2021/12/27 02:27:56;;;;;;;42.50;20.57;;;-6.10;99.90;;;;;;5058193;28;20215;-63
2021/12/27 02:30:23;;;;;;;42.00;23.10;;;-6.10;99.90;;;;;;5064705;28;20194;-65
2021/12/27 02:32:54;;;;;;;40.00;20.93;;;-6.10;99.90;;;;;;5055703;28;20253;-64
2021/12/27 02:35:23;;;;;;;41.17;21.37;;;-6.00;99.90;;;;;;5057259;28;20205;-65
2021/12/27 02:37:49;;;;;;;39.50;21.57;;;-6.00;99.90;;;;;;5055751;28;20199;-64
2021/12/27 02:40:16;;;;;;;46.60;24.53;;;-5.90;99.90;;;;;;5060369;28;20232;-64
2021/12/27 02:43:03;;;;;;;42.13;21.03;;;-5.90;99.90;;;;;;5062838;28;20195;-64
2021/12/27 02:45:31;;;;;;;44.43;21.70;;;-5.90;99.90;;;;;;5048539;28;20190;-65
2021/12/27 02:47:57;;;;;;;42.83;21.90;;;-5.90;99.90;;;;;;5054647;28;20301;-64
2021/12/27 02:50:24;;;;;;;41.07;22.47;;;-5.80;99.90;;;;;;5064534;28;20277;-64
2021/12/27 02:52:50;;;;;;;47.27;23.27;;;-5.80;99.90;;;;;;5062344;28;20202;-63
2021/12/27 02:55:16;;;;;;;43.30;22.73;;;-5.70;99.90;;;;;;5050767;28;20618;-63
2021/12/27 02:57:47;;;;;;;44.83;22.47;;;-5.70;99.90;;;;;;5062979;28;20278;-63
2021/12/27 03:00:28;;;;;;;40.57;23.77;;;-5.70;99.90;;;;;;5056776;28;20616;-65
2021/12/27 03:02:58;;;;;;;47.03;22.17;;;-5.70;99.90;;;;;;5063356;28;20288;-64
2021/12/27 03:05:27;;;;;;;48.83;24.33;;;-5.70;99.90;;;;;;5067610;28;20954;-64
2021/12/27 03:07:53;;;;;;;46.73;25.13;;;-5.60;99.90;;;;;;5058904;28;20213;-65
2021/12/27 03:10:22;;;;;;;44.77;23.87;;;-5.60;99.90;;;;;;5068116;28;20198;-64
2021/12/27 03:12:50;;;;;;;45.30;23.07;;;-5.70;99.90;;;;;;5059567;28;20207;-64
2021/12/27 03:15:17;;;;;;;45.20;23.43;;;-5.70;99.90;;;;;;5064319;28;20731;-64
2021/12/27 03:17:46;;;;;;;42.27;22.13;;;-5.70;99.90;;;;;;5066382;28;20202;-64
2021/12/27 03:20:13;;;;;;;43.10;23.03;;;-5.60;99.90;;;;;;5067866;28;20197;-64
2021/12/27 03:22:43;;;;;;;40.20;20.50;;;-5.60;99.90;;;;;;5060845;28;20662;-64
2021/12/27 03:25:11;;;;;;;41.37;23.93;;;-5.60;99.90;;;;;;5063025;28;20279;-64
2021/12/27 03:27:40;;;;;;;45.93;21.83;;;-5.60;99.90;;;;;;5061919;28;20205;-65
2021/12/27 03:30:10;;;;;;;48.30;24.97;;;-5.50;99.90;;;;;;5055619;28;20637;-65
2021/12/27 03:32:36;;;;;;;39.77;23.47;;;-5.50;99.90;;;;;;5066562;28;20224;-64
2021/12/27 03:35:11;;;;;;;45.23;23.07;;;-5.50;99.90;;;;;;5057716;28;20206;-64
2021/12/27 03:37:39;;;;;;;47.23;23.17;;;-5.50;99.90;;;;;;5059266;28;20205;-64
2021/12/27 03:40:07;;;;;;;39.73;23.73;;;-5.50;99.90;;;;;;5057432;28;20186;-63
2021/12/27 03:42:33;;;;;;;51.13;23.03;;;-5.60;99.90;;;;;;5066879;28;20214;-63
2021/12/27 03:44:59;;;;;;;44.60;22.67;;;-5.60;99.90;;;;;;5056207;28;20545;-64
2021/12/27 03:47:25;;;;;;;53.83;24.03;;;-5.50;99.90;;;;;;5060934;28;20209;-64
2021/12/27 03:49:50;;;;;;;42.97;24.23;;;-5.50;99.90;;;;;;5058099;28;20217;-64
2021/12/27 03:52:15;;;;;;;40.47;21.77;;;-5.50;99.90;;;;;;5052804;28;20256;-63
2021/12/27 03:54:41;;;;;;;45.67;21.30;;;-5.50;99.90;;;;;;5060166;28;20310;-63
2021/12/27 03:57:07;;;;;;;41.57;24.00;;;-5.50;99.90;;;;;;5066394;28;20631;-64
2021/12/27 03:59:49;;;;;;;42.63;22.67;;;-5.50;99.90;;;;;;5066295;28;20210;-64
2021/12/27 04:02:15;;;;;;;42.67;23.40;;;-5.50;99.90;;;;;;5053596;28;20175;-64
2021/12/27 04:04:42;;;;;;;50.70;23.93;;;-5.50;99.90;;;;;;5059442;28;20673;-64
2021/12/27 04:07:09;;;;;;;41.60;24.07;;;-5.50;99.90;;;;;;5064331;28;20186;-64
2021/12/27 04:09:37;;;;;;;36.67;22.33;;;-5.50;99.90;;;;;;5065523;28;20206;-63
2021/12/27 04:12:03;;;;;;;45.97;24.17;;;-5.50;99.90;;;;;;5062981;28;20633;-64
2021/12/27 04:14:29;;;;;;;50.17;22.47;;;-5.50;99.90;;;;;;5065310;28;20236;-64
2021/12/27 04:16:54;;;;;;;43.97;21.10;;;-5.40;99.90;;;;;;5059992;28;20171;-65
2021/12/27 04:19:20;;;;;;;43.00;21.17;;;-5.40;99.90;;;;;;5061944;28;20198;-64
2021/12/27 04:21:46;;;;;;;46.10;22.93;;;-5.30;99.90;;;;;;5056479;28;20277;-64
2021/12/27 04:24:12;;;;;;;40.33;23.10;;;-5.30;99.90;;;;;;5064718;28;20652;-64
2021/12/27 04:26:38;;;;;;;47.27;24.50;;;-5.20;99.90;;;;;;5057720;28;20630;-65
2021/12/27 04:29:04;;;;;;;42.90;23.03;;;-5.30;99.90;;;;;;5065650;28;20190;-64
2021/12/27 04:31:29;;;;;;;43.10;21.93;;;-5.30;99.90;;;;;;5055153;28;20449;-65
2021/12/27 04:33:55;;;;;;;42.17;22.80;;;-5.20;99.90;;;;;;5066628;28;20245;-64
2021/12/27 04:36:20;;;;;;;40.23;21.00;;;-5.20;99.90;;;;;;5058153;28;20671;-64
2021/12/27 04:38:46;;;;;;;48.90;23.43;;;-5.20;99.90;;;;;;5064443;28;20186;-64
2021/12/27 04:41:17;;;;;;;52.10;25.70;;;-5.10;99.90;;;;;;5058590;28;20218;-63
2021/12/27 04:43:42;;;;;;;45.87;22.30;;;-5.10;99.90;;;;;;5057698;28;20192;-63
2021/12/27 04:46:08;;;;;;;47.37;24.73;;;-5.10;99.90;;;;;;5047025;28;20210;-65
2021/12/27 04:48:34;;;;;;;51.57;25.13;;;-5.10;99.90;;;;;;5065604;28;20201;-66
2021/12/27 04:50:59;;;;;;;48.13;23.20;;;-5.10;99.90;;;;;;5055961;28;20213;-66
2021/12/27 04:53:25;;;;;;;42.77;22.87;;;-5.10;99.90;;;;;;5066599;28;20381;-65
2021/12/27 04:55:51;;;;;;;43.33;24.37;;;-5.10;99.90;;;;;;5052645;28;20218;-65
2021/12/27 04:58:20;;;;;;;46.47;22.87;;;-5.00;99.90;;;;;;5066898;28;20256;-64
2021/12/27 05:00:46;;;;;;;49.07;24.73;;;-5.10;99.90;;;;;;5055903;28;20214;-64
2021/12/27 05:03:12;;;;;;;46.23;23.73;;;-5.10;99.90;;;;;;5066513;28;20209;-65
2021/12/27 05:05:41;;;;;;;36.93;23.03;;;-5.10;99.90;;;;;;5051968;28;20213;-64
2021/12/27 05:08:07;;;;;;;41.37;24.00;;;-5.10;99.90;;;;;;5067243;28;20652;-64
2021/12/27 05:10:32;;;;;;;46.90;23.63;;;-5.10;99.90;;;;;;5056097;28;20293;-64
2021/12/27 05:12:58;;;;;;;42.60;21.80;;;-5.20;99.90;;;;;;5066167;28;20255;-64
2021/12/27 05:15:23;;;;;;;46.13;24.97;;;-5.10;99.90;;;;;;5055857;28;20256;-64
2021/12/27 05:17:49;;;;;;;44.73;24.57;;;-5.20;99.90;;;;;;5065815;28;20194;-64
2021/12/27 05:20:14;;;;;;;42.67;24.13;;;-5.20;99.90;;;;;;5058064;28;20219;-64
2021/12/27 05:22:40;;;;;;;42.27;25.13;;;-5.20;99.90;;;;;;5065022;28;20213;-64
2021/12/27 05:25:08;;;;;;;43.43;23.40;;;-5.20;99.90;;;;;;5062694;28;20653;-64
2021/12/27 05:27:34;;;;;;;43.53;24.37;;;-5.10;99.90;;;;;;5065033;28;20225;-64
2021/12/27 05:29:59;;;;;;;49.13;22.63;;;-5.00;99.90;;;;;;5055230;28;20577;-63
2021/12/27 05:32:25;;;;;;;42.47;24.50;;;-5.00;99.90;;;;;;5065342;28;20194;-64
2021/12/27 05:34:50;;;;;;;50.13;26.20;;;-4.90;99.90;;;;;;5063254;28;20303;-64
2021/12/27 05:37:16;;;;;;;40.90;22.20;;;-4.90;99.90;;;;;;5066028;28;20182;-65
2021/12/27 05:39:42;;;;;;;48.33;24.20;;;-4.80;99.90;;;;;;5063538;28;20288;-65
2021/12/27 05:42:09;;;;;;;41.07;23.37;;;-4.80;99.90;;;;;;5048539;28;20591;-64
2021/12/27 05:44:34;;;;;;;46.73;24.83;;;-4.80;99.90;;;;;;5063298;28;20209;-63
2021/12/27 05:47:00;;;;;;;44.83;24.17;;;-4.70;99.90;;;;;;5053586;28;20186;-63
2021/12/27 05:49:26;;;;;;;43.10;25.23;;;-4.80;99.90;;;;;;5063026;28;20271;-64
2021/12/27 05:51:52;;;;;;;53.57;25.53;;;-4.70;99.90;;;;;;5053649;28;20381;-63
2021/12/27 05:54:20;;;;;;;42.20;24.23;;;-4.70;99.90;;;;;;5058545;28;20226;-63
2021/12/27 05:56:47;;;;;;;44.60;24.17;;;-4.70;99.90;;;;;;5049858;28;20183;-64
2021/12/27 05:59:13;;;;;;;44.07;24.53;;;-4.70;99.90;;;;;;5062600;28;20198;-65
2021/12/27 06:01:39;;;;;;;58.17;24.83;;;-4.70;99.90;;;;;;5052953;28;20194;-64
2021/12/27 06:04:05;;;;;;;44.97;23.70;;;-4.70;99.90;;;;;;5062969;28;20194;-65
2021/12/27 06:06:31;;;;;;;52.00;26.37;;;-4.60;99.90;;;;;;5051960;28;20186;-65
2021/12/27 06:08:56;;;;;;;50.27;23.73;;;-4.50;99.90;;;;;;5064595;28;20296;-64
2021/12/27 06:11:22;;;;;;;41.67;24.17;;;-4.50;99.90;;;;;;5057619;28;20262;-64
2021/12/27 06:13:47;;;;;;;42.23;23.20;;;-4.60;99.90;;;;;;5064367;28;20300;-64
2021/12/27 06:16:13;;;;;;;44.30;23.87;;;-4.50;99.90;;;;;;5052597;28;20202;-64
2021/12/27 06:18:39;;;;;;;45.67;24.93;;;-4.50;99.90;;;;;;5063437;28;20189;-64
2021/12/27 06:21:04;;;;;;;46.33;24.23;;;-4.50;99.90;;;;;;5053230;28;20202;-64
2021/12/27 06:23:31;;;;;;;40.77;22.87;;;-4.60;99.90;;;;;;5064657;28;20227;-64
2021/12/27 06:25:57;;;;;;;41.33;23.43;;;-4.60;99.90;;;;;;5054075;28;20202;-63
2021/12/27 06:28:22;;;;;;;45.07;24.57;;;-4.60;99.90;;;;;;5063657;28;20221;-63
2021/12/27 06:30:48;;;;;;;43.17;21.77;;;-4.60;99.90;;;;;;5056885;28;20199;-63
2021/12/27 06:33:14;;;;;;;46.27;25.17;;;-4.60;99.90;;;;;;5063748;28;20271;-64
2021/12/27 06:35:39;;;;;;;43.17;22.77;;;-4.60;99.90;;;;;;5056602;28;20218;-64
2021/12/27 06:38:05;;;;;;;48.63;25.53;;;-4.50;99.90;;;;;;5068299;28;20195;-63
2021/12/27 06:40:30;;;;;;;42.33;21.93;;;-4.50;99.90;;;;;;5054292;28;20195;-63
2021/12/27 06:42:57;;;;;;;52.47;25.93;;;-4.40;99.90;;;;;;5063671;28;20240;-64
2021/12/27 06:45:22;;;;;;;47.67;23.67;;;-4.30;99.90;;;;;;5057593;28;20206;-64
2021/12/27 06:47:48;;;;;;;45.63;25.10;;;-4.20;99.90;;;;;;5068144;28;20205;-64
2021/12/27 06:50:14;;;;;;;37.87;22.33;;;-4.20;99.90;;;;;;5055762;28;20205;-64
2021/12/27 06:52:39;;;;;;;46.97;22.20;;;-4.20;99.90;;;;;;5061140;28;20196;-64
2021/12/27 06:55:06;;;;;;;39.10;22.30;;;-4.10;99.90;;;;;;5065265;28;20215;-64
2021/12/27 06:57:32;;;;;;;43.77;23.17;;;-4.00;99.90;;;;;;5063672;28;20281;-64
2021/12/27 06:59:59;;;;;;;42.77;23.73;;;-4.00;99.90;;;;;;5057200;28;20736;-64
2021/12/27 07:02:25;;;;;;;49.43;24.00;;;-4.10;99.90;;;;;;5067969;28;20197;-65
2021/12/27 07:04:50;;;;;;;43.63;24.23;;;-4.00;99.90;;;;;;5066057;28;21014;-65
2021/12/27 07:07:16;;;;;;;48.57;24.43;;;-4.00;99.90;;;;;;5055447;28;20228;-66
2021/12/27 07:09:41;;;;;;;51.03;24.57;;;-4.00;99.90;;;;;;5066133;28;20641;-65
2021/12/27 07:12:07;;;;;;;47.27;23.47;;;-4.00;99.90;;;;;;5054393;28;20201;-64
2021/12/27 07:14:33;;;;;;;39.23;22.50;;;-4.00;99.90;;;;;;5060317;28;20242;-64
2021/12/27 07:16:59;;;;;;;48.47;25.63;;;-4.00;99.90;;;;;;5061096;28;20285;-66
2021/12/27 07:19:24;;;;;;;44.47;24.53;;;-3.90;99.90;;;;;;5065281;28;20186;-66
2021/12/27 07:21:50;;;;;;;38.93;23.50;;;-3.90;99.90;;;;;;5077123;28;20252;-66
2021/12/27 07:24:16;;;;;;;44.83;23.87;;;-3.90;99.90;;;;;;5072510;28;20195;-66
2021/12/27 07:26:42;;;;;;;45.33;25.73;;;-3.90;99.90;;;;;;5076767;28;20178;-65
2021/12/27 07:29:07;;;;;;;45.73;24.80;;;-3.90;99.90;;;;;;5064760;28;20197;-66
2021/12/27 07:31:33;;;;;;;41.07;23.93;;;-3.90;99.90;;;;;;5058856;28;20179;-65
2021/12/27 07:34:00;;;;;;;52.70;25.77;;;-4.00;99.90;;;;;;5061427;28;20211;-65
2021/12/27 07:36:27;;;;;;;51.80;26.27;;;-3.90;99.90;;;;;;5075249;28;20433;-65
2021/12/27 07:38:52;;;;;;;41.80;24.03;;;-3.90;99.90;;;;;;5078363;28;20240;-65
2021/12/27 07:41:18;;;;;;;46.40;22.93;;;-3.90;99.90;;;;;;5074919;28;20222;-64
2021/12/27 07:43:43;;;;;;;48.03;24.43;;;-3.90;99.90;;;;;;5077470;28;20191;-64
2021/12/27 07:46:09;;;;;;;48.23;23.73;;;-3.80;99.90;;;;;;5072918;28;20216;-65
2021/12/27 07:48:34;;;;;;;42.70;25.40;;;-3.80;99.90;;;;;;5075517;28;20244;-64
2021/12/27 07:51:00;;;;;;;54.07;25.93;;;-3.70;99.90;;;;;;5071637;28;20287;-64
2021/12/27 07:53:25;;;;;;;58.70;25.03;;;-3.70;99.90;;;;;;5076476;28;20639;-65
2021/12/27 07:55:51;;;;;;;41.83;23.90;;;-3.60;99.90;;;;;;5073926;28;20221;-65
2021/12/27 07:58:16;;;;;;;39.73;22.73;;;-3.60;99.90;;;;;;5075714;28;20190;-67
2021/12/27 08:00:42;;;;;;;46.87;25.87;;;-3.60;99.90;;;;;;5072589;28;20197;-65
2021/12/27 08:03:07;;;;;;;45.80;24.57;;;-3.70;99.90;;;;;;5077772;28;20274;-67
2021/12/27 08:05:33;;;;;;;48.23;25.53;;;-3.70;99.90;;;;;;5072077;28;20204;-64
2021/12/27 08:07:58;;;;;;;42.73;23.33;;;-3.70;99.90;;;;;;5075547;28;20184;-63
2021/12/27 08:10:25;;;;;;;42.37;24.40;;;-3.70;99.90;;;;;;5075978;28;20224;-63
2021/12/27 08:12:51;;;;;;;43.50;23.70;;;-3.60;99.90;;;;;;5076783;28;20200;-65
2021/12/27 08:15:16;;;;;;;47.83;25.83;;;-3.60;99.90;;;;;;5074076;28;20222;-65
2021/12/27 08:17:42;;;;;;;42.13;24.23;;;-3.60;99.90;;;;;;5075386;28;20193;-66
2021/12/27 08:20:08;;;;;;;45.03;27.07;;;-3.60;99.90;;;;;;5072765;28;20209;-65
2021/12/27 08:22:34;;;;;;;41.63;25.13;;;-3.60;99.90;;;;;;5075318;28;20243;-66
2021/12/27 08:24:59;;;;;;;53.90;26.63;;;-3.60;99.90;;;;;;5074162;28;20199;-66
2021/12/27 08:27:27;;;;;;;50.03;23.80;;;-3.60;99.90;;;;;;5077092;28;20560;-66
2021/12/27 08:29:53;;;;;;;50.80;25.33;;;-3.60;99.90;;;;;;5072613;28;20205;-65
2021/12/27 08:32:19;;;;;;;54.87;25.90;;;-3.70;99.90;;;;;;5075433;28;20569;-63
2021/12/27 08:34:45;;;;;;;49.60;25.10;;;-3.60;99.90;;;;;;5074196;28;20282;-64
2021/12/27 08:37:11;;;;;;;49.03;27.07;;;-3.60;99.90;;;;;;5075674;28;20193;-64
2021/12/27 08:39:38;;;;;;;51.43;26.03;;;-3.60;99.90;;;;;;5070451;28;20680;-63
2021/12/27 08:42:07;;;;;;;50.00;25.80;;;-3.60;99.90;;;;;;5076288;28;20174;-65
2021/12/27 08:44:34;;;;;;;40.63;24.23;;;-3.50;99.90;;;;;;5073301;28;20203;-64
2021/12/27 08:46:59;;;;;;;48.03;24.43;;;-3.50;99.90;;;;;;5075032;28;20177;-66
2021/12/27 08:49:25;;;;;;;56.27;27.23;;;-3.40;99.90;;;;;;5072622;28;20560;-63
2021/12/27 08:51:50;;;;;;;50.43;24.37;;;-3.40;99.90;;;;;;5075538;28;20329;-65
2021/12/27 08:54:16;;;;;;;44.10;25.27;;;-3.30;99.90;;;;;;5070527;28;20885;-64
2021/12/27 08:56:41;;;;;;;42.13;22.47;;;-3.20;99.90;;;;;;5076351;28;20167;-64
2021/12/27 08:59:07;;;;;;;40.53;25.50;;;-3.10;99.90;;;;;;5069970;28;20197;-65
2021/12/27 09:01:33;;;;;;;47.20;25.27;;;-3.10;99.90;;;;;;5075714;28;20184;-63
2021/12/27 09:03:58;;;;;;;41.50;24.67;;;-3.10;99.90;;;;;;5074540;28;20265;-62
2021/12/27 09:06:23;;;;;;;45.37;24.10;;;-3.10;99.90;;;;;;5075748;28;20194;-63
2021/12/27 09:08:49;;;;;;;43.77;23.80;;;-3.10;99.90;;;;;;5075437;28;20707;-64
2021/12/27 09:11:15;;;;;;;48.70;25.17;;;-3.10;99.90;;;;;;5073312;28;20219;-63
2021/12/27 09:13:41;;;;;;;42.73;24.23;;;-3.10;99.90;;;;;;5073804;28;20225;-64
2021/12/27 09:16:07;;;;;;;39.67;23.00;;;-3.10;99.90;;;;;;5067337;28;20208;-63
2021/12/27 09:18:35;;;;;;;43.53;23.47;;;-3.10;99.90;;;;;;5074633;28;20518;-64
2021/12/27 09:21:01;;;;;;;54.13;25.13;;;-3.00;99.90;;;;;;5015192;28;20255;-63
2021/12/27 09:23:29;;;;;;;49.53;27.07;;;-2.90;99.90;;;;;;5073774;28;20231;-64
2021/12/27 09:25:55;;;;;;;40.77;23.60;;;-2.90;99.90;;;;;;5068826;28;20198;-65
2021/12/27 09:28:21;;;;;;;46.50;24.67;;;-2.90;99.90;;;;;;5074921;28;20533;-65
2021/12/27 09:30:46;;;;;;;48.77;24.07;;;-2.80;99.90;;;;;;5072474;28;20227;-65
2021/12/27 09:33:12;;;;;;;41.33;24.27;;;-2.80;99.90;;;;;;5075424;28;20182;-66
2021/12/27 09:35:39;;;;;;;45.10;24.13;;;-2.80;99.90;;;;;;5072307;28;20212;-64
2021/12/27 09:38:05;;;;;;;42.73;24.53;;;-2.80;99.90;;;;;;5075548;28;20188;-64
2021/12/27 09:40:31;;;;;;;38.90;22.73;;;-2.80;99.90;;;;;;5056339;28;20194;-64
2021/12/27 09:42:56;;;;;;;45.23;24.23;;;-2.80;99.90;;;;;;5065746;28;20195;-61
2021/12/27 09:45:22;;;;;;;49.93;27.13;;;-2.80;99.90;;;;;;5042044;28;20829;-60
2021/12/27 09:47:50;;;;;;;37.17;23.30;;;-2.80;99.90;;;;;;5064604;28;20699;-60
2021/12/27 09:50:48;;;;;;;42.87;23.80;;;-2.80;99.90;;;;;;5065717;28;20548;-60
2021/12/27 09:53:15;;;;;;;43.87;26.47;;;-2.70;99.90;;;;;;5068845;28;20195;-61
2021/12/27 09:55:41;;;;;;;40.57;24.40;;;-2.70;99.90;;;;;;5070301;28;20217;-62
2021/12/27 09:58:06;;;;;;;43.77;25.00;;;-2.60;99.90;;;;;;5074648;28;20191;-63
2021/12/27 10:00:34;;;;;;;42.13;23.80;;;-2.60;99.90;;;;;;5072423;28;20210;-63
2021/12/27 10:03:00;;;;;;;41.33;23.93;;;-2.50;99.90;;;;;;5072384;28;20402;-62
2021/12/27 10:05:28;;;;;;;45.00;23.87;;;-2.50;99.90;;;;;;5073062;28;20213;-61
2021/12/27 10:07:55;;;;;;;40.03;23.10;;;-2.50;99.90;;;;;;5075608;28;20270;-61
2021/12/27 10:10:20;;;;;;;47.40;24.57;;;-2.40;99.90;;;;;;5070830;28;20253;-62
2021/12/27 10:12:47;;;;;;;45.47;25.37;;;-2.40;99.90;;;;;;5073342;28;20384;-76
2021/12/27 10:15:16;;;;;;;44.20;25.63;;;-2.40;99.90;;;;;;5070062;28;20284;-76
2021/12/27 10:17:42;;;;;;;45.20;24.00;;;-2.40;99.90;;;;;;5075332;28;20195;-76
2021/12/27 10:20:20;;;;;;;50.07;24.80;;;-2.40;99.90;;;;;;5071304;28;20200;-77
2021/12/27 10:22:48;;;;;;;46.73;23.83;;;-2.30;99.90;;;;;;5074422;28;20853;-77
2021/12/27 10:25:23;;;;;;;40.17;21.97;;;-2.30;99.90;;;;;;5072100;28;20201;-76
2021/12/27 10:27:53;;;;;;;50.03;27.27;;;-2.30;99.90;;;;;;5073883;28;20182;-76
2021/12/27 10:30:22;;;;;;;46.67;25.33;;;-2.30;99.90;;;;;;5076324;28;20408;-76
2021/12/27 10:33:12;;;;;;;44.83;24.97;;;-2.20;99.90;;;;;;5079333;28;20295;-76
2021/12/27 10:35:43;;;;;;;47.27;23.93;;;-2.00;99.90;;;;;;5057246;28;20222;-77
2021/12/27 10:38:27;;;;;;;44.40;25.17;;;-1.90;99.90;;;;;;5069934;28;20679;-63
2021/12/27 10:40:59;;;;;;;44.60;24.03;;;-1.70;99.90;;;;;;5045818;28;20574;-62
2021/12/27 10:43:46;;;;;;;43.20;25.00;;;-1.50;99.90;;;;;;5064113;28;20191;-64
2021/12/27 10:46:18;;;;;;;43.63;24.67;;;-1.10;99.90;;;;;;5075170;28;20179;-63
2021/12/27 10:48:47;;;;;;;46.40;24.33;;;-0.90;99.90;;;;;;5057354;28;20195;-64
2021/12/27 10:51:13;;;;;;;46.00;22.77;;;-1.00;99.90;;;;;;5055790;28;20274;-63
2021/12/27 10:53:43;;;;;;;36.60;23.40;;;-1.10;99.90;;;;;;5062550;28;20203;-63
2021/12/27 10:56:10;;;;;;;38.73;23.73;;;-1.20;99.90;;;;;;5044839;28;20232;-64
2021/12/27 10:58:38;;;;;;;43.00;22.37;;;-1.40;99.90;;;;;;5068289;28;20234;-63
2021/12/27 11:01:11;;;;;;;45.03;23.73;;;-1.50;99.90;;;;;;5079004;28;20251;-63
2021/12/27 11:03:39;;;;;;;44.50;22.57;;;-1.60;99.90;;;;;;5048258;28;20621;-63
2021/12/27 11:06:09;;;;;;;40.93;23.57;;;-1.60;99.90;;;;;;5056774;28;20254;-63
2021/12/27 11:08:38;;;;;;;39.40;21.47;;;-1.60;99.90;;;;;;5063551;28;20260;-63
2021/12/27 11:11:05;;;;;;;46.73;25.73;;;-1.50;99.90;;;;;;5053093;28;20701;-63
2021/12/27 11:13:32;;;;;;;41.50;24.13;;;-1.50;99.90;;;;;;5063777;28;20202;-63
2021/12/27 11:15:58;;;;;;;43.23;24.40;;;-1.50;99.90;;;;;;5043709;28;20689;-63
2021/12/27 11:18:24;;;;;;;41.43;24.37;;;-1.40;99.90;;;;;;5064194;28;20244;-63
2021/12/27 11:20:55;;;;;;;39.33;23.00;;;-1.30;99.90;;;;;;5051810;28;20201;-65
2021/12/27 11:23:23;;;;;;;43.03;24.20;;;-1.10;99.90;;;;;;5025392;28;20226;-62
2021/12/27 11:26:03;;;;;;;41.33;24.47;;;-1.00;99.90;;;;;;5051059;28;20278;-61
2021/12/27 11:28:34;;;;;;;44.93;24.07;;;-1.00;99.90;;;;;;5056807;28;20192;-63
2021/12/27 11:31:08;;;;;;;46.20;23.47;;;-1.00;99.90;;;;;;5054956;28;20617;-62
2021/12/27 11:33:59;;;;;;;43.97;24.33;;;-0.80;99.90;;;;;;5059064;28;20538;-62
2021/12/27 11:36:32;;;;;;;42.20;24.33;;;-0.80;99.90;;;;;;5060430;28;20216;-72
2021/12/27 11:39:00;;;;;;;42.43;22.73;;;-0.80;99.90;;;;;;5063348;28;20242;-63
2021/12/27 11:41:36;;;;;;;41.43;24.37;;;-0.70;99.90;;;;;;5048002;28;20176;-62
2021/12/27 11:44:09;;;;;;;39.40;22.03;;;-0.80;99.90;;;;;;5065571;28;20198;-64
2021/12/27 11:46:47;;;;;;;36.43;22.10;;;-0.90;99.90;;;;;;5054253;28;20947;-63
2021/12/27 11:49:13;;;;;;;40.67;22.87;;;-1.00;99.90;;;;;;5064622;28;20186;-62
2021/12/27 11:51:40;;;;;;;43.17;22.80;;;-1.00;99.90;;;;;;5058278;28;20184;-62
2021/12/27 11:54:27;;;;;;;43.07;23.50;;;-1.00;99.90;;;;;;5065155;28;20257;-63
2021/12/27 11:56:53;;;;;;;38.83;21.60;;;-1.00;99.90;;;;;;5054369;28;20180;-63
2021/12/27 11:59:21;;;;;;;42.40;23.30;;;-1.00;99.90;;;;;;5071966;28;20287;-61
2021/12/27 12:01:48;;;;;;;43.23;22.30;;;-0.90;99.90;;;;;;5076634;28;20684;-62
2021/12/27 12:04:41;;;;;;;44.57;22.77;;;-0.90;99.90;;;;;;5073627;28;20741;-64
2021/12/27 12:07:08;;;;;;;40.93;23.13;;;-0.80;99.90;;;;;;5075678;28;20197;-63
2021/12/27 12:09:46;;;;;;;46.10;23.07;;;-0.80;99.90;;;;;;5075808;28;20215;-62
2021/12/27 12:12:14;;;;;;;39.93;20.53;;;-0.70;99.90;;;;;;5076310;28;20195;-64
2021/12/27 12:14:40;;;;;;;44.37;22.73;;;-0.80;99.90;;;;;;5063501;28;20259;-63
2021/12/27 12:17:13;;;;;;;43.83;22.63;;;-0.70;99.90;;;;;;5065254;28;20208;-63
2021/12/27 12:19:42;;;;;;;38.27;22.83;;;-0.70;99.90;;;;;;5056749;28;20257;-74
2021/12/27 12:22:32;;;;;;;39.50;22.80;;;-0.80;99.90;;;;;;5000127;28;20217;-74
2021/12/27 12:25:18;;;;;;;40.53;23.23;;;-0.80;99.90;;;;;;5055282;28;20283;-74
2021/12/27 12:28:04;;;;;;;40.60;21.70;;;-0.80;99.90;;;;;;5063532;28;20676;-76
2021/12/27 12:30:32;;;;;;;44.43;23.97;;;-0.80;99.90;;;;;;5060335;28;20280;-75